createdAt,value
2022-10-19T00:01:38.140Z,140.48
2022-10-19T00:04:41.285Z,130.30
2022-10-19T00:07:46.000Z,181.25
2022-10-19T00:10:49.733Z,126.63
2022-10-19T00:13:53.552Z,97.53
2022-10-19T00:16:58.098Z,125.20
2022-10-19T00:20:01.424Z,106.90
2022-10-19T00:23:06.026Z,63.13
2022-10-19T00:26:09.861Z,67.07
2022-10-19T00:29:14.435Z,71.80
2022-10-19T00:32:17.677Z,109.78
2022-10-19T00:35:20.874Z,41.92
2022-10-19T00:38:25.383Z,68.38
2022-10-19T00:41:31.541Z,54.03
2022-10-19T00:45:01.566Z,66.40
2022-10-19T00:48:05.027Z,56.85
2022-10-19T00:51:08.448Z,82.75
2022-10-19T00:54:13.279Z,87.85
2022-10-19T00:57:17.121Z,124.88
2022-10-19T01:00:20.517Z,101.45
2022-10-19T01:03:23.715Z,104.75
2022-10-19T01:06:28.261Z,82.15
2022-10-19T01:09:32.801Z,50.72
2022-10-19T01:12:54.033Z,116.22
2022-10-19T01:16:04.447Z,63.63
2022-10-19T01:19:24.636Z,46.88
2022-10-19T01:22:42.983Z,63.17
2022-10-19T01:25:56.717Z,67.55
2022-10-19T01:29:10.648Z,113.22
2022-10-19T01:32:21.594Z,54.33
2022-10-19T01:35:30.192Z,78.95
2022-10-19T01:38:38.913Z,101.82
2022-10-19T01:41:50.437Z,42.50
2022-10-19T01:44:56.607Z,42.45
2022-10-19T01:48:05.948Z,70.68
2022-10-19T01:51:14.190Z,46.55
2022-10-19T01:54:18.954Z,49.78
2022-10-19T01:57:26.718Z,132.27
2022-10-19T02:03:36.777Z,48.10
2022-10-19T02:06:41.657Z,65.78
2022-10-19T02:09:44.793Z,35.47
2022-10-19T02:12:49.099Z,40.42
2022-10-19T02:15:55.788Z,35.33
2022-10-19T02:19:01.919Z,72.30
2022-10-19T02:22:05.511Z,90.95
2022-10-19T02:25:10.047Z,104.07
2022-10-19T02:28:13.494Z,107.18
2022-10-19T02:31:17.074Z,57.53
2022-10-19T02:34:21.639Z,28.52
2022-10-19T02:37:25.822Z,81.20
2022-10-19T02:40:33.564Z,47.35
2022-10-19T02:43:40.151Z,53.88
2022-10-19T02:46:46.569Z,57.70
2022-10-19T02:49:51.730Z,84.20
2022-10-19T02:52:55.065Z,53.13
2022-10-19T02:55:58.226Z,73.22
2022-10-19T02:59:01.634Z,188.50
2022-10-19T03:02:04.714Z,102.20
2022-10-19T03:05:11.037Z,140.57
2022-10-19T03:08:14.132Z,75.85
2022-10-19T03:11:17.229Z,147.80
2022-10-19T03:14:20.343Z,163.25
2022-10-19T03:17:23.478Z,140.75
2022-10-19T03:20:28.284Z,152.38
2022-10-19T03:23:31.545Z,95.57
2022-10-19T03:26:34.770Z,106.75
2022-10-19T03:29:37.989Z,93.53
2022-10-19T03:34:27.170Z,221.20
2022-10-19T03:37:30.264Z,284.55
2022-10-19T03:40:33.511Z,162.02
2022-10-19T03:43:36.718Z,378.70
2022-10-19T03:46:40.589Z,170.07
2022-10-19T03:49:45.546Z,219.60
2022-10-19T03:52:49.571Z,166.88
2022-10-19T03:55:52.794Z,148.48
2022-10-19T03:58:57.570Z,130.50
2022-10-19T04:02:00.764Z,115.22
2022-10-19T04:05:06.016Z,84.55
2022-10-19T04:08:09.155Z,79.15
2022-10-19T04:11:14.905Z,84.72
2022-10-19T04:14:31.726Z,76.82
2022-10-19T04:20:42.790Z,87.18
2022-10-19T04:23:45.966Z,140.98
2022-10-19T04:26:50.806Z,100.45
2022-10-19T04:29:54.125Z,90.25
2022-10-19T04:32:57.580Z,169.70
2022-10-19T04:36:03.177Z,86.78
2022-10-19T04:39:06.978Z,210.52
2022-10-19T04:42:10.110Z,176.52
2022-10-19T04:45:13.228Z,145.90
2022-10-19T04:48:16.439Z,168.38
2022-10-19T04:51:21.245Z,114.38
2022-10-19T04:54:24.424Z,214.90
2022-10-19T04:57:28.078Z,105.28
2022-10-19T05:00:31.358Z,139.93
2022-10-19T05:03:34.477Z,166.80
2022-10-19T05:06:39.560Z,97.55
2022-10-19T05:09:43.096Z,94.55
2022-10-19T05:12:46.421Z,37.40
2022-10-19T05:15:57.014Z,169.20
2022-10-19T05:19:00.189Z,252.32
2022-10-19T05:22:04.711Z,243.32
2022-10-19T05:25:09.268Z,321.80
2022-10-19T05:28:12.642Z,379.02
2022-10-19T05:31:18.220Z,366.63
2022-10-19T05:34:21.652Z,343.40
2022-10-19T05:37:26.691Z,237.15
2022-10-19T05:40:30.881Z,219.85
2022-10-19T05:43:34.051Z,77.07
2022-10-19T05:46:37.982Z,143.82
2022-10-19T05:49:41.091Z,67.95
2022-10-19T05:52:45.569Z,72.60
2022-10-19T05:55:48.689Z,81.95
2022-10-19T05:58:52.396Z,51.50
2022-10-19T06:01:55.676Z,135.45
2022-10-19T06:04:58.947Z,159.68
2022-10-19T06:08:03.529Z,66.72
2022-10-19T06:11:07.975Z,52.08
2022-10-19T06:14:14.764Z,71.72
2022-10-19T06:17:17.960Z,102.13
2022-10-19T06:20:21.032Z,47.70
2022-10-19T06:23:25.540Z,56.22
2022-10-19T06:26:29.596Z,72.85
2022-10-19T06:29:32.825Z,86.07
2022-10-19T06:32:35.966Z,53.97
2022-10-19T06:35:42.244Z,77.32
2022-10-19T06:38:46.988Z,95.70
2022-10-19T06:41:50.102Z,99.32
2022-10-19T06:44:56.366Z,143.25
2022-10-19T06:48:03.580Z,146.77
2022-10-19T06:51:10.322Z,103.78
2022-10-19T06:54:14.845Z,109.95
2022-10-19T06:57:18.078Z,52.90
2022-10-19T07:00:21.359Z,38.28
2022-10-19T07:03:25.037Z,41.25
2022-10-19T07:06:29.787Z,64.55
2022-10-19T07:09:34.635Z,53.97
2022-10-19T07:12:37.979Z,31.67
2022-10-19T07:15:41.381Z,30.90
2022-10-19T07:18:44.777Z,101.93
2022-10-19T07:21:51.446Z,30.05
2022-10-19T07:24:55.945Z,32.92
2022-10-19T07:27:59.388Z,41.15
2022-10-19T07:31:07.225Z,58.95
2022-10-19T07:34:13.716Z,66.88
2022-10-19T07:37:16.822Z,88.85
2022-10-19T07:40:21.387Z,49.42
2022-10-19T07:43:24.461Z,119.32
2022-10-19T07:46:29.600Z,30.65
2022-10-19T07:49:32.866Z,59.20
2022-10-19T07:52:37.058Z,53.40
2022-10-19T07:55:42.223Z,19.25
2022-10-19T07:58:46.137Z,47.40
2022-10-19T08:01:50.235Z,70.57
2022-10-19T08:05:01.255Z,25.00
2022-10-19T08:08:06.426Z,34.20
2022-10-19T08:11:13.082Z,61.65
2022-10-19T08:14:16.494Z,19.25
2022-10-19T08:17:19.992Z,38.28
2022-10-19T08:20:23.450Z,44.28
2022-10-19T08:23:27.467Z,30.88
2022-10-19T08:26:33.800Z,19.27
2022-10-19T08:29:37.300Z,39.88
2022-10-19T08:32:40.602Z,37.10
2022-10-19T08:35:43.802Z,22.55
2022-10-19T08:38:48.685Z,26.20
2022-10-19T08:42:03.081Z,20.98
2022-10-19T08:45:28.316Z,59.63
2022-10-19T08:48:36.638Z,37.47
2022-10-19T08:51:41.828Z,38.17
2022-10-19T08:54:52.735Z,16.05
2022-10-19T08:58:05.565Z,60.58
2022-10-19T09:01:17.573Z,36.50
2022-10-19T09:04:25.544Z,49.95
2022-10-19T09:07:32.805Z,27.10
2022-10-19T09:10:38.572Z,55.97
2022-10-19T09:14:04.131Z,48.97
2022-10-19T09:17:14.761Z,14.65
2022-10-19T09:20:21.196Z,35.20
2022-10-19T09:23:30.506Z,30.73
2022-10-19T09:26:37.120Z,21.00
2022-10-19T09:29:45.452Z,17.05
2022-10-19T09:34:31.282Z,22.33
2022-10-19T09:37:41.370Z,16.45
2022-10-19T09:40:45.406Z,17.63
2022-10-19T09:43:54.455Z,14.98
2022-10-19T09:47:14.002Z,14.40
2022-10-19T09:50:21.343Z,12.50
2022-10-19T09:53:26.569Z,11.47
2022-10-19T09:56:29.925Z,14.60
2022-10-19T09:59:37.425Z,14.75
2022-10-19T10:02:40.630Z,17.05
2022-10-19T10:05:48.733Z,10.50
2022-10-19T10:08:58.250Z,10.85
2022-10-19T10:12:01.568Z,15.23
2022-10-19T10:15:07.170Z,12.50
2022-10-19T10:18:15.197Z,11.57
2022-10-19T10:24:31.244Z,12.70
2022-10-19T10:27:36.903Z,12.18
2022-10-19T10:30:40.308Z,12.10
2022-10-19T10:33:45.441Z,16.88
2022-10-19T10:36:54.690Z,14.27
2022-10-19T10:40:02.135Z,14.98
2022-10-19T10:43:10.090Z,16.25
2022-10-19T10:46:17.678Z,16.83
2022-10-19T10:49:24.152Z,12.50
2022-10-19T10:52:31.208Z,10.90
2022-10-19T10:55:35.709Z,12.03
2022-10-19T10:58:47.690Z,8.77
2022-10-19T11:01:59.988Z,12.10
2022-10-19T11:05:08.378Z,13.73
2022-10-19T11:08:21.893Z,14.13
2022-10-19T11:11:28.933Z,13.05
2022-10-19T11:14:38.304Z,11.98
2022-10-19T11:17:53.913Z,11.27
2022-10-19T11:21:06.041Z,13.02
2022-10-19T11:24:19.455Z,12.15
2022-10-19T11:27:35.868Z,12.68
2022-10-19T11:30:50.794Z,13.75
2022-10-19T11:34:02.685Z,14.32
2022-10-19T11:37:20.338Z,11.45
2022-10-19T11:40:32.182Z,12.37
2022-10-19T11:43:43.395Z,10.75
2022-10-19T11:46:55.272Z,9.32
2022-10-19T11:53:28.364Z,12.45
2022-10-19T11:57:01.712Z,11.27
2022-10-19T12:00:14.571Z,12.27
2022-10-19T12:03:43.672Z,12.60
2022-10-19T12:06:55.986Z,11.35
2022-10-19T12:10:07.267Z,13.05
2022-10-19T12:13:17.315Z,14.75
2022-10-19T12:16:30.535Z,11.65
2022-10-19T12:19:37.988Z,12.80
2022-10-19T12:22:41.228Z,10.40
2022-10-19T12:25:46.319Z,11.13
2022-10-19T12:28:58.689Z,10.65
2022-10-19T12:32:04.236Z,13.02
2022-10-19T12:35:24.936Z,9.90
2022-10-19T12:38:37.834Z,11.25
2022-10-19T12:41:52.195Z,8.90
2022-10-19T12:45:18.488Z,9.90
2022-10-19T12:48:24.550Z,12.18
2022-10-19T12:51:28.213Z,9.73
2022-10-19T12:54:35.393Z,12.95
2022-10-19T12:57:40.724Z,7.75
2022-10-19T13:00:59.082Z,7.50
2022-10-19T13:04:11.728Z,9.45
2022-10-19T13:07:19.283Z,9.40
2022-10-19T13:10:25.821Z,10.55
2022-10-19T13:13:52.984Z,8.48
2022-10-19T13:17:01.937Z,8.43
2022-10-19T13:20:48.072Z,11.02
2022-10-19T13:23:51.465Z,8.90
2022-10-19T13:27:25.101Z,7.30
2022-10-19T13:31:03.430Z,6.20
2022-10-19T13:34:16.709Z,7.78
2022-10-19T13:37:20.320Z,8.90
2022-10-19T13:40:24.929Z,9.57
2022-10-19T13:43:31.949Z,7.72
2022-10-19T13:46:49.185Z,6.07
2022-10-19T13:50:08.608Z,7.22
2022-10-19T13:53:29.804Z,6.38
2022-10-19T13:56:45.857Z,4.90
2022-10-19T14:00:13.550Z,4.97
2022-10-19T14:03:29.247Z,5.72
2022-10-19T14:06:40.197Z,6.38
2022-10-19T14:10:03.094Z,11.77
2022-10-19T14:13:12.676Z,5.97
2022-10-19T14:16:22.034Z,6.43
2022-10-19T14:19:29.126Z,5.80
2022-10-19T14:22:36.037Z,4.60
2022-10-19T14:25:39.324Z,5.10
2022-10-19T14:28:43.649Z,7.00
2022-10-19T14:31:50.906Z,5.25
2022-10-19T14:34:55.696Z,4.15
2022-10-19T14:38:01.152Z,5.78
2022-10-19T14:41:06.152Z,6.57
2022-10-19T14:44:31.438Z,5.05
2022-10-19T14:47:34.564Z,5.78
2022-10-19T14:50:46.056Z,8.10
2022-10-19T14:53:54.969Z,8.05
2022-10-19T14:57:05.034Z,4.72
2022-10-19T15:00:15.897Z,4.60
2022-10-19T15:03:24.006Z,5.63
2022-10-19T15:09:47.916Z,4.57
2022-10-19T15:12:52.676Z,4.15
2022-10-19T15:15:56.963Z,5.55
2022-10-19T15:19:04.740Z,4.95
2022-10-19T15:22:13.966Z,8.13
2022-10-19T15:25:33.315Z,6.85
2022-10-19T15:28:41.421Z,7.35
2022-10-19T15:34:31.054Z,5.97
2022-10-19T15:37:34.436Z,5.70
2022-10-19T15:40:42.360Z,6.18
2022-10-19T15:43:48.258Z,6.90
2022-10-19T15:47:19.363Z,4.72
2022-10-19T15:50:37.530Z,6.85
2022-10-19T15:53:40.689Z,8.63
2022-10-19T15:56:45.740Z,6.03
2022-10-19T15:59:49.128Z,7.22
2022-10-19T16:02:52.522Z,6.80
2022-10-19T16:05:57.084Z,5.05
2022-10-19T16:09:00.871Z,5.43
2022-10-19T16:12:04.466Z,7.45
2022-10-19T16:15:08.540Z,9.32
2022-10-19T16:18:12.244Z,6.97
2022-10-19T16:21:17.873Z,8.30
2022-10-19T16:24:20.989Z,11.10
2022-10-19T16:27:24.352Z,8.23
2022-10-19T16:30:27.435Z,7.85
2022-10-19T16:33:30.727Z,8.40
2022-10-19T16:36:35.330Z,10.65
2022-10-19T16:39:38.734Z,7.97
2022-10-19T16:42:41.929Z,13.82
2022-10-19T16:45:45.544Z,10.82
2022-10-19T16:48:48.689Z,9.98
2022-10-19T16:51:56.447Z,7.75
2022-10-19T16:55:00.926Z,10.05
2022-10-19T16:58:04.497Z,9.48
2022-10-19T17:01:08.185Z,10.10
2022-10-19T17:04:11.752Z,8.15
2022-10-19T17:07:17.106Z,19.33
2022-10-19T17:10:20.953Z,11.38
2022-10-19T17:13:24.555Z,9.10
2022-10-19T17:16:29.846Z,13.13
2022-10-19T17:19:33.170Z,12.43
2022-10-19T17:22:38.086Z,11.70
2022-10-19T17:25:47.962Z,11.35
2022-10-19T17:28:51.164Z,12.93
2022-10-19T17:31:54.330Z,12.70
2022-10-19T17:34:57.691Z,11.95
2022-10-19T17:38:02.330Z,14.65
2022-10-19T17:41:08.008Z,15.73
2022-10-19T17:44:11.380Z,16.73
2022-10-19T17:47:14.515Z,12.90
2022-10-19T17:50:17.861Z,16.27
2022-10-19T17:53:22.689Z,13.27
2022-10-19T17:56:27.089Z,14.68
2022-10-19T17:59:40.640Z,14.95
2022-10-19T18:02:53.738Z,16.20
2022-10-19T18:05:58.618Z,13.88
2022-10-19T18:09:05.838Z,13.02
2022-10-19T18:12:13.237Z,14.77
2022-10-19T18:15:16.574Z,16.35
2022-10-19T18:18:23.068Z,14.50
2022-10-19T18:21:28.112Z,18.40
2022-10-19T18:24:34.672Z,13.70
2022-10-19T18:27:38.096Z,16.10
2022-10-19T18:30:45.182Z,20.30
2022-10-19T18:33:50.100Z,16.13
2022-10-19T18:36:53.691Z,15.15
2022-10-19T18:39:58.222Z,20.10
2022-10-19T18:43:01.437Z,16.90
2022-10-19T18:46:04.634Z,16.20
2022-10-19T18:49:09.559Z,11.77
2022-10-19T18:52:13.499Z,15.80
2022-10-19T18:55:18.193Z,17.25
2022-10-19T18:58:21.299Z,15.65
2022-10-19T19:01:26.654Z,17.88
2022-10-19T19:04:30.135Z,16.23
2022-10-19T19:07:33.288Z,11.68
2022-10-19T19:10:37.770Z,15.82
2022-10-19T19:13:41.916Z,17.38
2022-10-19T19:16:45.902Z,18.98
2022-10-19T19:19:49.027Z,13.77
2022-10-19T19:22:52.301Z,18.02
2022-10-19T19:25:58.218Z,19.60
2022-10-19T19:29:01.371Z,21.27
2022-10-19T19:32:05.145Z,15.20
2022-10-19T19:35:08.613Z,17.50
2022-10-19T19:38:12.369Z,15.93
2022-10-19T19:41:17.556Z,13.45
2022-10-19T19:44:22.966Z,20.80
2022-10-19T19:47:26.241Z,17.92
2022-10-19T19:50:29.831Z,19.35
2022-10-19T19:53:32.947Z,17.23
2022-10-19T19:56:39.184Z,17.48
2022-10-19T19:59:42.383Z,16.27
2022-10-19T20:02:45.518Z,16.45
2022-10-19T20:05:48.623Z,16.50
2022-10-19T20:08:51.864Z,19.25
2022-10-19T20:11:56.561Z,19.05
2022-10-19T20:14:59.681Z,20.77
2022-10-19T20:18:02.856Z,19.17
2022-10-19T20:21:07.059Z,23.52
2022-10-19T20:24:10.918Z,19.25
2022-10-19T20:27:15.434Z,28.27
2022-10-19T20:30:18.598Z,21.67
2022-10-19T20:33:21.883Z,20.65
2022-10-19T20:36:26.678Z,18.60
2022-10-19T20:39:30.175Z,17.70
2022-10-19T20:42:35.107Z,17.80
2022-10-19T20:45:38.362Z,25.17
2022-10-19T20:48:41.755Z,20.27
2022-10-19T20:51:45.044Z,16.73
2022-10-19T20:54:49.326Z,22.02
2022-10-19T20:57:54.030Z,14.73
2022-10-19T21:00:57.091Z,15.50
2022-10-19T21:04:03.209Z,18.50
2022-10-19T21:07:06.375Z,17.90
2022-10-19T21:10:10.135Z,18.10
2022-10-19T21:13:14.807Z,25.10
2022-10-19T21:16:20.414Z,15.45
2022-10-19T21:19:25.902Z,16.58
2022-10-19T21:22:29.171Z,18.65
2022-10-19T21:25:32.413Z,19.45
2022-10-19T21:28:38.110Z,12.70
2022-10-19T21:34:29.159Z,17.40
2022-10-19T21:37:32.680Z,15.43
2022-10-19T21:40:36.692Z,15.15
2022-10-19T21:43:40.073Z,16.55
2022-10-19T21:46:44.012Z,17.17
2022-10-19T21:49:48.509Z,22.65
2022-10-19T21:52:51.840Z,15.13
2022-10-19T21:55:55.054Z,19.90
2022-10-19T21:58:58.481Z,18.00
2022-10-19T22:02:01.650Z,16.52
2022-10-19T22:05:07.042Z,25.70
2022-10-19T22:08:10.417Z,18.17
2022-10-19T22:11:15.151Z,22.23
2022-10-19T22:14:18.699Z,18.67
2022-10-19T22:17:21.918Z,22.67
2022-10-19T22:20:26.396Z,17.40
2022-10-19T22:23:29.802Z,19.60
2022-10-19T22:26:35.434Z,16.92
2022-10-19T22:29:38.940Z,18.55
2022-10-19T22:32:42.069Z,20.88
2022-10-19T22:35:54.232Z,16.52
2022-10-19T22:38:57.362Z,18.00
2022-10-19T22:42:00.443Z,15.40
2022-10-19T22:45:03.576Z,15.25
2022-10-19T22:48:07.622Z,17.65
2022-10-19T22:51:12.084Z,18.00
2022-10-19T22:54:15.718Z,26.77
2022-10-19T22:57:18.858Z,18.52
2022-10-19T23:00:22.044Z,16.30
2022-10-19T23:03:25.141Z,25.52
2022-10-19T23:06:29.977Z,19.80
2022-10-19T23:09:33.086Z,16.33
2022-10-19T23:12:36.314Z,18.17
2022-10-19T23:15:43.120Z,19.98
2022-10-19T23:18:47.294Z,18.85
2022-10-19T23:21:51.730Z,20.05
2022-10-19T23:24:54.898Z,15.05
2022-10-19T23:27:58.058Z,26.25
2022-10-19T23:31:06.477Z,16.70
2022-10-19T23:34:09.670Z,16.08
2022-10-19T23:37:14.183Z,25.73
2022-10-19T23:40:17.476Z,19.92
2022-10-19T23:43:20.624Z,20.83
2022-10-19T23:46:23.813Z,20.38
2022-10-19T23:49:26.910Z,20.40
2022-10-19T23:52:31.364Z,18.33
2022-10-19T23:55:34.435Z,20.00
2022-10-19T23:58:37.652Z,16.63
